Cradley Heath, United Kingdom
Current Conditions -  °F | °C
As of 10:50 PM on Friday 28 Nov 2014 (Local Time) from EGBB Reporting Station
Light Rain Light Rain  
Wind Chill: 50°   Ceiling: 700
Heat Index: 50°   Visibility: 2mi
Dew Point: 48°   Wind: 7mph
Humidity: 94%   Direction: 30°NNE
Pressure: 29.74"   Gusts: NA
Location:  52.47°N, 2.09°W
Report Text: EGBB 282250Z 03006KT 3300 -RA BKN007 OVC009 10/09 Q1007
Loading
Personal Weather Stations






























Interactive Weather Map New forecast layout! Learn more

10-Day Weather Forecast

Advertisements
Track Severe Weather on mobile